createdAt,value
2023-05-03T00:01:15.003Z,56.50
2023-05-03T00:03:42.294Z,56.60
2023-05-03T00:06:14.455Z,56.70
2023-05-03T00:08:43.329Z,56.60
2023-05-03T00:11:10.704Z,57.10
2023-05-03T00:13:38.082Z,56.50
2023-05-03T00:16:05.789Z,56.60
2023-05-03T00:18:32.981Z,56.70
2023-05-03T00:21:00.654Z,57.10
2023-05-03T00:23:28.458Z,57.00
2023-05-03T00:25:57.137Z,56.90
2023-05-03T00:28:25.545Z,57.10
2023-05-03T00:30:53.927Z,57.20
2023-05-03T00:33:21.924Z,57.00
2023-05-03T00:35:49.867Z,57.10
2023-05-03T00:38:17.215Z,57.20
2023-05-03T00:40:44.487Z,57.10
2023-05-03T00:43:13.441Z,57.20
2023-05-03T00:45:40.826Z,57.30
2023-05-03T00:48:08.112Z,57.00
2023-05-03T00:50:37.328Z,57.40
2023-05-03T00:53:05.031Z,57.20
2023-05-03T00:55:33.611Z,57.40
2023-05-03T00:58:00.867Z,57.00
2023-05-03T01:00:28.633Z,57.30
2023-05-03T01:02:56.853Z,57.40
2023-05-03T01:05:25.265Z,58.00
2023-05-03T01:08:01.694Z,57.80
2023-05-03T01:10:41.423Z,57.70
2023-05-03T01:13:24.779Z,57.60
2023-05-03T01:16:06.010Z,57.60
2023-05-03T01:18:40.223Z,57.80
2023-05-03T01:21:10.388Z,57.80
2023-05-03T01:23:46.380Z,58.00
2023-05-03T01:26:27.584Z,57.90
2023-05-03T01:28:56.011Z,58.10
2023-05-03T01:31:24.347Z,58.10
2023-05-03T01:34:17.006Z,58.30
2023-05-03T01:36:46.012Z,58.30
2023-05-03T01:39:20.054Z,58.30
2023-05-03T01:41:50.857Z,58.50
2023-05-03T01:44:21.747Z,58.50
2023-05-03T01:46:49.910Z,58.70
2023-05-03T01:49:17.638Z,58.80
2023-05-03T01:51:45.017Z,58.90
2023-05-03T01:54:13.401Z,58.80
2023-05-03T01:56:41.343Z,59.00
2023-05-03T01:59:09.086Z,59.10
2023-05-03T02:01:36.509Z,59.10
2023-05-03T02:04:03.971Z,59.40
2023-05-03T02:06:31.898Z,59.40
2023-05-03T02:09:00.841Z,59.50
2023-05-03T02:11:28.415Z,59.60
2023-05-03T02:14:15.846Z,59.90
2023-05-03T02:16:43.452Z,60.40
2023-05-03T02:19:11.222Z,60.40
2023-05-03T02:21:38.567Z,63.70
2023-05-03T02:24:06.341Z,62.00
2023-05-03T02:26:33.768Z,60.00
2023-05-03T02:29:01.787Z,60.10
2023-05-03T02:31:32.048Z,59.40
2023-05-03T02:37:17.107Z,60.20
2023-05-03T02:39:45.940Z,60.70
2023-05-03T02:42:16.658Z,61.10
2023-05-03T02:44:46.593Z,61.20
2023-05-03T02:47:13.957Z,61.50
2023-05-03T02:49:43.116Z,61.20
2023-05-03T02:52:11.000Z,61.40
2023-05-03T02:54:38.603Z,62.00
2023-05-03T02:57:12.410Z,61.80
2023-05-03T02:59:40.108Z,63.10
2023-05-03T03:02:09.283Z,62.50
2023-05-03T03:04:38.097Z,62.70
2023-05-03T03:07:06.177Z,62.60
2023-05-03T03:09:33.749Z,62.50
2023-05-03T03:12:03.547Z,62.60
2023-05-03T03:14:30.934Z,62.60
2023-05-03T03:16:58.335Z,63.10
2023-05-03T03:19:25.681Z,63.00
2023-05-03T03:21:52.815Z,63.60
2023-05-03T03:24:20.024Z,63.60
2023-05-03T03:26:47.862Z,63.40
2023-05-03T03:29:15.321Z,63.80
2023-05-03T03:31:45.084Z,64.00
2023-05-03T03:34:13.937Z,64.30
2023-05-03T03:36:41.604Z,64.00
2023-05-03T03:39:08.901Z,63.90
2023-05-03T03:41:37.590Z,64.50
2023-05-03T03:44:05.658Z,64.60
2023-05-03T03:46:33.016Z,64.90
2023-05-03T03:49:02.840Z,64.90
2023-05-03T03:51:31.545Z,64.80
2023-05-03T03:54:00.234Z,64.90
2023-05-03T03:56:33.022Z,65.20
2023-05-03T03:59:00.929Z,65.60
2023-05-03T04:01:28.192Z,65.40
2023-05-03T04:03:56.637Z,65.80
2023-05-03T04:06:24.186Z,65.30
2023-05-03T04:08:52.196Z,65.40
2023-05-03T04:11:21.457Z,65.90
2023-05-03T04:13:54.514Z,65.50
2023-05-03T04:16:22.746Z,66.00
2023-05-03T04:18:50.614Z,65.60
2023-05-03T04:21:18.644Z,65.30
2023-05-03T04:23:47.178Z,65.50
2023-05-03T04:26:30.147Z,65.30
2023-05-03T04:29:02.778Z,66.00
2023-05-03T04:31:30.957Z,66.10
2023-05-03T04:33:58.817Z,66.00
2023-05-03T04:36:29.969Z,65.90
2023-05-03T04:38:59.257Z,66.10
2023-05-03T04:41:27.048Z,66.40
2023-05-03T04:43:55.144Z,66.80
2023-05-03T04:46:22.583Z,67.10
2023-05-03T04:48:51.685Z,66.60
2023-05-03T04:51:19.181Z,66.30
2023-05-03T04:53:48.067Z,67.00
2023-05-03T04:56:20.621Z,66.90
2023-05-03T04:58:47.891Z,67.10
2023-05-03T05:01:17.005Z,67.00
2023-05-03T05:03:44.745Z,66.90
2023-05-03T05:06:20.478Z,67.20
2023-05-03T05:08:48.895Z,67.60
2023-05-03T05:11:16.188Z,67.70
2023-05-03T05:13:43.511Z,68.10
2023-05-03T05:16:11.132Z,68.00
2023-05-03T05:18:42.387Z,68.20
2023-05-03T05:21:11.774Z,68.60
2023-05-03T05:23:39.376Z,68.80
2023-05-03T05:26:06.874Z,68.70
2023-05-03T05:28:34.261Z,69.20
2023-05-03T05:31:03.403Z,68.80
2023-05-03T05:33:31.842Z,68.80
2023-05-03T05:36:00.194Z,69.00
2023-05-03T05:38:27.952Z,69.80
2023-05-03T05:40:57.912Z,69.40
2023-05-03T05:43:25.749Z,69.70
2023-05-03T05:45:53.023Z,68.90
2023-05-03T05:48:21.176Z,69.50
2023-05-03T05:50:49.241Z,69.80
2023-05-03T05:53:17.549Z,69.30
2023-05-03T05:55:52.078Z,68.70
2023-05-03T05:58:19.620Z,68.60
2023-05-03T06:00:51.400Z,68.80
2023-05-03T06:03:19.455Z,68.70
2023-05-03T06:05:49.465Z,69.00
2023-05-03T06:08:16.859Z,69.50
2023-05-03T06:10:47.586Z,70.30
2023-05-03T06:13:14.998Z,69.50
2023-05-03T06:15:43.346Z,69.40
2023-05-03T06:18:10.783Z,69.50
2023-05-03T06:20:38.347Z,69.60
2023-05-03T06:23:06.168Z,69.80
2023-05-03T06:25:33.699Z,69.40
2023-05-03T06:28:01.219Z,68.70
2023-05-03T06:30:32.990Z,68.90
2023-05-03T06:33:10.650Z,68.40
2023-05-03T06:35:38.218Z,68.30
2023-05-03T06:38:05.524Z,68.20
2023-05-03T06:40:33.584Z,67.30
2023-05-03T06:43:01.093Z,68.00
2023-05-03T06:45:39.946Z,68.10
2023-05-03T06:48:07.638Z,68.00
2023-05-03T06:50:35.167Z,68.30
2023-05-03T06:53:03.064Z,68.60
2023-05-03T06:55:30.379Z,68.90
2023-05-03T06:57:58.132Z,69.20
2023-05-03T07:00:26.101Z,69.10
2023-05-03T07:02:53.701Z,69.10
2023-05-03T07:05:21.212Z,68.80
2023-05-03T07:07:48.523Z,69.00
2023-05-03T07:10:15.833Z,69.60
2023-05-03T07:12:43.181Z,69.30
2023-05-03T07:15:10.657Z,69.90
2023-05-03T07:17:37.961Z,70.00
2023-05-03T07:20:06.057Z,70.00
2023-05-03T07:22:33.604Z,70.00
2023-05-03T07:25:01.102Z,70.50
2023-05-03T07:27:28.886Z,70.90
2023-05-03T07:29:56.239Z,71.00
2023-05-03T07:32:23.672Z,70.90
2023-05-03T07:34:51.174Z,70.80
2023-05-03T07:37:18.554Z,71.10
2023-05-03T07:39:51.747Z,71.20
2023-05-03T07:42:20.130Z,71.70
2023-05-03T07:44:47.193Z,71.60
2023-05-03T07:47:14.384Z,71.90
2023-05-03T07:49:41.694Z,71.00
2023-05-03T07:52:11.476Z,71.30
2023-05-03T07:54:40.447Z,71.10
2023-05-03T07:57:07.884Z,70.90
2023-05-03T07:59:35.637Z,70.00
2023-05-03T08:02:03.237Z,70.00
2023-05-03T08:04:30.887Z,70.00
2023-05-03T08:07:04.518Z,69.90
2023-05-03T08:09:31.773Z,69.80
2023-05-03T08:11:59.082Z,69.90
2023-05-03T08:14:28.058Z,69.70
2023-05-03T08:16:55.547Z,69.80
2023-05-03T08:19:22.866Z,69.90
2023-05-03T08:21:50.206Z,69.90
2023-05-03T08:24:17.509Z,69.70
2023-05-03T08:26:45.640Z,69.00
2023-05-03T08:29:12.875Z,69.70
2023-05-03T08:31:41.401Z,69.30
2023-05-03T08:34:10.756Z,69.50
2023-05-03T08:36:41.639Z,69.30
2023-05-03T08:39:13.673Z,69.30
2023-05-03T08:41:42.548Z,69.90
2023-05-03T08:44:12.670Z,69.40
2023-05-03T08:46:43.113Z,70.70
2023-05-03T08:49:12.740Z,70.60
2023-05-03T08:51:47.411Z,69.80
2023-05-03T08:54:15.734Z,69.90
2023-05-03T08:56:44.180Z,70.30
2023-05-03T08:59:11.804Z,69.50
2023-05-03T09:01:40.547Z,69.00
2023-05-03T09:04:09.890Z,68.40
2023-05-03T09:06:38.667Z,68.10
2023-05-03T09:09:09.029Z,68.00
2023-05-03T09:11:39.344Z,67.00
2023-05-03T09:14:11.214Z,67.60
2023-05-03T09:16:40.087Z,66.80
2023-05-03T09:19:11.697Z,67.60
2023-05-03T09:21:44.944Z,67.00
2023-05-03T09:24:20.061Z,68.00
2023-05-03T09:26:49.412Z,66.60
2023-05-03T09:29:36.827Z,66.80
2023-05-03T09:32:06.092Z,66.20
2023-05-03T09:34:34.791Z,66.60
2023-05-03T09:37:02.447Z,66.10
2023-05-03T09:39:30.131Z,66.40
2023-05-03T09:41:57.994Z,66.60
2023-05-03T09:44:54.459Z,66.60
2023-05-03T09:47:24.742Z,66.60
2023-05-03T09:49:52.114Z,66.80
2023-05-03T09:52:21.803Z,67.30
2023-05-03T09:54:49.940Z,66.60
2023-05-03T09:57:17.860Z,67.40
2023-05-03T09:59:46.088Z,67.50
2023-05-03T10:02:13.678Z,67.40
2023-05-03T10:04:52.184Z,67.60
2023-05-03T10:07:21.979Z,67.90
2023-05-03T10:09:49.446Z,67.20
2023-05-03T10:12:19.214Z,67.60
2023-05-03T10:14:48.328Z,67.60
2023-05-03T10:17:35.749Z,66.80
2023-05-03T10:20:28.529Z,67.70
2023-05-03T10:23:05.129Z,68.30
2023-05-03T10:25:34.685Z,68.30
2023-05-03T10:28:06.950Z,68.00
2023-05-03T10:30:41.142Z,67.60
2023-05-03T10:33:14.683Z,68.30
2023-05-03T10:35:53.099Z,68.20
2023-05-03T10:38:21.833Z,68.00
2023-05-03T10:40:49.249Z,67.80
2023-05-03T10:43:34.662Z,68.80
2023-05-03T10:46:06.626Z,68.30
2023-05-03T10:48:35.092Z,67.30
2023-05-03T10:51:39.808Z,68.10
2023-05-03T10:54:07.621Z,68.00
2023-05-03T10:56:50.019Z,67.70
2023-05-03T10:59:17.909Z,67.60
2023-05-03T11:01:47.132Z,69.00
2023-05-03T11:04:33.974Z,68.60
2023-05-03T11:07:01.804Z,68.40
2023-05-03T11:09:33.950Z,69.10
2023-05-03T11:12:05.976Z,68.50
2023-05-03T11:14:33.807Z,68.60
2023-05-03T11:17:02.046Z,68.50
2023-05-03T11:19:29.884Z,69.00
2023-05-03T11:21:59.145Z,68.50
2023-05-03T11:24:27.610Z,69.90
2023-05-03T11:26:54.823Z,69.60
2023-05-03T11:29:25.158Z,69.90
2023-05-03T11:31:52.956Z,70.80
2023-05-03T11:34:20.439Z,69.70
2023-05-03T11:36:49.451Z,69.60
2023-05-03T11:39:18.734Z,69.30
2023-05-03T11:42:02.797Z,69.20
2023-05-03T11:44:30.726Z,68.80
2023-05-03T11:46:58.842Z,69.00
2023-05-03T11:49:27.222Z,69.50
2023-05-03T11:51:55.258Z,68.50
2023-05-03T11:54:27.090Z,68.50
2023-05-03T11:57:00.266Z,68.60
2023-05-03T11:59:36.578Z,67.60
2023-05-03T12:02:06.292Z,67.40
2023-05-03T12:04:34.691Z,67.80
2023-05-03T12:07:05.896Z,67.10
2023-05-03T12:09:35.922Z,67.00
2023-05-03T12:12:06.126Z,65.90
2023-05-03T12:14:59.553Z,64.60
2023-05-03T12:17:43.944Z,64.80
2023-05-03T12:22:57.145Z,63.60
2023-05-03T12:25:29.086Z,64.30
2023-05-03T12:28:17.982Z,64.30
2023-05-03T12:30:47.115Z,64.10
2023-05-03T12:33:16.811Z,64.10
2023-05-03T12:35:47.928Z,65.20
2023-05-03T12:38:17.369Z,64.20
2023-05-03T12:40:47.325Z,64.30
2023-05-03T12:43:15.202Z,63.70
2023-05-03T12:45:46.858Z,64.30
2023-05-03T12:48:17.645Z,64.40
2023-05-03T12:50:45.898Z,64.90
2023-05-03T12:53:16.931Z,64.20
2023-05-03T12:55:48.025Z,64.10
2023-05-03T13:03:34.480Z,64.50
2023-05-03T13:06:13.394Z,64.00
2023-05-03T13:11:13.181Z,62.30
2023-05-03T13:13:40.629Z,62.70
2023-05-03T13:16:09.264Z,62.60
2023-05-03T13:18:37.253Z,62.00
2023-05-03T13:21:05.093Z,62.10
2023-05-03T13:23:34.065Z,62.20
2023-05-03T13:26:03.890Z,61.40
2023-05-03T13:28:32.732Z,61.20
2023-05-03T13:31:00.087Z,61.90
2023-05-03T13:33:28.772Z,61.80
2023-05-03T13:35:56.701Z,62.20
2023-05-03T13:38:24.153Z,61.80
2023-05-03T13:40:52.503Z,62.50
2023-05-03T13:43:19.733Z,63.20
2023-05-03T13:45:59.680Z,64.50
2023-05-03T13:48:27.020Z,64.50
2023-05-03T13:50:54.439Z,64.20
2023-05-03T13:53:21.755Z,63.60
2023-05-03T13:55:49.055Z,64.30
2023-05-03T13:58:16.620Z,64.60
2023-05-03T14:00:45.527Z,64.00
2023-05-03T14:03:13.139Z,65.20
2023-05-03T14:05:40.682Z,64.90
2023-05-03T14:08:08.095Z,65.30
2023-05-03T14:10:35.970Z,67.00
2023-05-03T14:13:03.716Z,66.10
2023-05-03T14:15:31.335Z,66.80
2023-05-03T14:18:01.243Z,66.80
2023-05-03T14:20:30.652Z,67.00
2023-05-03T14:22:58.251Z,67.00
2023-05-03T14:25:27.234Z,67.40
2023-05-03T14:27:55.021Z,67.10
2023-05-03T14:30:22.506Z,66.60
2023-05-03T14:32:50.316Z,68.20
2023-05-03T14:35:20.718Z,66.80
2023-05-03T14:37:48.172Z,67.30
2023-05-03T14:40:17.271Z,67.90
2023-05-03T14:42:44.614Z,67.30
2023-05-03T14:45:15.059Z,66.00
2023-05-03T14:47:42.868Z,66.80
2023-05-03T14:50:10.933Z,65.60
2023-05-03T14:52:38.675Z,65.70
2023-05-03T14:55:06.957Z,65.90
2023-05-03T14:57:34.370Z,65.80
2023-05-03T15:00:02.362Z,65.60
2023-05-03T15:02:33.098Z,65.10
2023-05-03T15:05:03.065Z,64.80
2023-05-03T15:07:31.969Z,65.20
2023-05-03T15:10:01.562Z,63.50
2023-05-03T15:12:32.892Z,64.10
2023-05-03T15:15:00.194Z,64.50
2023-05-03T15:17:27.988Z,65.20
2023-05-03T15:19:55.312Z,66.60
2023-05-03T15:22:22.595Z,66.50
2023-05-03T15:24:49.788Z,66.80
2023-05-03T15:27:17.381Z,67.60
2023-05-03T15:29:45.052Z,67.30
2023-05-03T15:32:14.877Z,68.00
2023-05-03T15:34:43.114Z,68.20
2023-05-03T15:37:12.452Z,69.60
2023-05-03T15:39:40.062Z,69.30
2023-05-03T15:42:07.565Z,68.80
2023-05-03T15:44:35.970Z,69.30
2023-05-03T15:47:04.269Z,68.20
2023-05-03T15:49:31.697Z,67.90
2023-05-03T15:51:58.905Z,67.70
2023-05-03T15:54:26.137Z,66.60
2023-05-03T15:56:53.887Z,66.60
2023-05-03T15:59:21.455Z,65.10
2023-05-03T16:01:49.496Z,65.50
2023-05-03T16:04:18.454Z,65.00
2023-05-03T16:06:46.033Z,64.40
2023-05-03T16:09:13.830Z,64.80
2023-05-03T16:11:41.189Z,66.00
2023-05-03T16:14:09.691Z,65.10
2023-05-03T16:16:38.964Z,65.40
2023-05-03T16:19:08.917Z,65.30
2023-05-03T16:21:36.189Z,66.00
2023-05-03T16:24:04.863Z,66.10
2023-05-03T16:26:34.527Z,65.60
2023-05-03T16:29:02.104Z,65.80
2023-05-03T16:31:30.580Z,65.50
2023-05-03T16:33:58.452Z,66.30
2023-05-03T16:36:25.774Z,66.50
2023-05-03T16:38:53.191Z,66.60
2023-05-03T16:41:21.078Z,66.30
2023-05-03T16:43:48.353Z,67.00
2023-05-03T16:46:15.746Z,68.50
2023-05-03T16:48:43.232Z,68.30
2023-05-03T16:51:10.423Z,68.30
2023-05-03T16:53:37.610Z,68.80
2023-05-03T16:56:05.016Z,68.90
2023-05-03T16:58:32.426Z,69.30
2023-05-03T17:00:59.696Z,69.90
2023-05-03T17:03:27.058Z,70.80
2023-05-03T17:05:54.342Z,71.30
2023-05-03T17:08:21.758Z,71.60
2023-05-03T17:10:49.029Z,71.70
2023-05-03T17:13:17.424Z,71.60
2023-05-03T17:15:45.374Z,71.60
2023-05-03T17:18:13.270Z,71.90
2023-05-03T17:20:40.598Z,71.90
2023-05-03T17:23:07.936Z,72.20
2023-05-03T17:25:35.732Z,73.10
2023-05-03T17:28:03.893Z,73.70
2023-05-03T17:30:31.360Z,74.20
2023-05-03T17:32:58.755Z,74.50
2023-05-03T17:35:29.350Z,74.90
2023-05-03T17:37:57.489Z,75.50
2023-05-03T17:40:25.524Z,75.80
2023-05-03T17:42:52.740Z,76.30
2023-05-03T17:45:20.255Z,76.70
2023-05-03T17:47:47.726Z,77.20
2023-05-03T17:50:15.066Z,77.80
2023-05-03T17:52:42.338Z,78.10
2023-05-03T17:55:10.843Z,78.30
2023-05-03T17:57:40.150Z,78.50
2023-05-03T18:00:11.306Z,78.60
2023-05-03T18:02:38.802Z,79.10
2023-05-03T18:05:07.118Z,79.40
2023-05-03T18:07:34.624Z,79.50
2023-05-03T18:10:02.776Z,79.80
2023-05-03T18:12:32.568Z,80.00
2023-05-03T18:15:00.425Z,80.20
2023-05-03T18:17:28.716Z,80.30
2023-05-03T18:19:56.489Z,80.50
2023-05-03T18:22:25.920Z,80.90
2023-05-03T18:24:55.604Z,82.20
2023-05-03T18:27:23.489Z,82.70
2023-05-03T18:29:51.180Z,82.10
2023-05-03T18:32:18.673Z,82.20
2023-05-03T18:34:46.097Z,82.30
2023-05-03T18:37:13.625Z,82.50
2023-05-03T18:39:40.996Z,82.60
2023-05-03T18:42:08.422Z,83.30
2023-05-03T18:44:36.347Z,83.70
2023-05-03T18:47:04.060Z,83.70
2023-05-03T18:49:31.461Z,83.90
2023-05-03T18:51:59.226Z,84.00
2023-05-03T18:54:26.644Z,84.20
2023-05-03T18:56:54.327Z,84.40
2023-05-03T18:59:21.815Z,84.80
2023-05-03T19:01:50.242Z,85.00
2023-05-03T19:04:17.926Z,85.10
2023-05-03T19:06:45.700Z,85.50
2023-05-03T19:09:13.795Z,85.70
2023-05-03T19:11:43.041Z,85.80
2023-05-03T19:14:10.462Z,86.10
2023-05-03T19:16:37.741Z,86.40
2023-05-03T19:19:05.026Z,87.10
2023-05-03T19:21:33.098Z,87.90
2023-05-03T19:24:00.798Z,87.70
2023-05-03T19:26:28.095Z,87.40
2023-05-03T19:28:55.652Z,87.40
2023-05-03T19:31:22.929Z,87.50
2023-05-03T19:33:50.271Z,87.90
2023-05-03T19:36:17.729Z,88.30
2023-05-03T19:38:45.037Z,88.80
2023-05-03T19:41:12.731Z,89.40
2023-05-03T19:43:41.423Z,90.10
2023-05-03T19:46:09.065Z,90.60
2023-05-03T19:48:36.975Z,91.00
2023-05-03T19:51:07.393Z,91.50
2023-05-03T19:53:34.960Z,92.10
2023-05-03T19:56:03.331Z,92.50
2023-05-03T19:58:32.266Z,93.10
2023-05-03T20:00:59.796Z,93.50
2023-05-03T20:03:27.732Z,93.80
2023-05-03T20:05:55.448Z,94.30
2023-05-03T20:08:24.209Z,94.50
2023-05-03T20:10:51.787Z,94.70
2023-05-03T20:13:19.499Z,95.00
2023-05-03T20:15:47.415Z,95.30
2023-05-03T20:18:14.793Z,95.60
2023-05-03T20:20:42.037Z,95.90
2023-05-03T20:23:09.333Z,96.30
2023-05-03T20:25:36.687Z,96.30
2023-05-03T20:28:04.617Z,96.30
2023-05-03T20:30:32.308Z,96.40
2023-05-03T20:32:59.703Z,96.60
2023-05-03T20:35:27.066Z,97.10
2023-05-03T20:37:54.432Z,97.30
2023-05-03T20:40:23.936Z,97.40
2023-05-03T20:42:52.750Z,97.40
2023-05-03T20:45:20.393Z,97.40
2023-05-03T20:47:47.843Z,97.60
2023-05-03T20:50:15.125Z,97.80
2023-05-03T20:52:42.408Z,97.80
2023-05-03T20:55:09.823Z,97.90
2023-05-03T20:57:41.946Z,97.90
2023-05-03T21:00:15.907Z,98.00
2023-05-03T21:02:50.092Z,98.20
2023-05-03T21:05:17.683Z,98.40
2023-05-03T21:07:44.972Z,98.50
2023-05-03T21:10:12.891Z,98.70
2023-05-03T21:12:41.117Z,98.70
2023-05-03T21:15:09.108Z,98.80
2023-05-03T21:17:36.422Z,98.80
2023-05-03T21:20:04.270Z,98.90
2023-05-03T21:22:32.215Z,99.10
2023-05-03T21:25:02.548Z,99.20
2023-05-03T21:27:31.201Z,99.20
2023-05-03T21:29:58.449Z,99.30
2023-05-03T21:32:25.823Z,99.10
2023-05-03T21:34:53.933Z,99.00
2023-05-03T21:37:21.355Z,99.00
2023-05-03T21:40:00.396Z,98.80
2023-05-03T21:42:31.774Z,98.40
2023-05-03T21:44:59.156Z,98.20
2023-05-03T21:47:27.931Z,97.90
2023-05-03T21:50:03.821Z,97.50
2023-05-03T21:52:33.693Z,97.40
2023-05-03T21:55:01.086Z,97.40
2023-05-03T21:57:33.138Z,97.00
2023-05-03T22:00:00.498Z,96.90
2023-05-03T22:02:27.935Z,96.50
2023-05-03T22:04:55.255Z,96.60
2023-05-03T22:07:22.556Z,96.40
2023-05-03T22:09:49.743Z,96.20
2023-05-03T22:12:24.307Z,96.10
2023-05-03T22:14:52.941Z,96.00
2023-05-03T22:17:21.169Z,95.90
2023-05-03T22:19:48.800Z,95.70
2023-05-03T22:22:16.029Z,95.70
2023-05-03T22:24:43.626Z,95.80
2023-05-03T22:27:10.897Z,95.90
2023-05-03T22:29:38.566Z,95.80
2023-05-03T22:32:07.068Z,95.80
2023-05-03T22:34:34.341Z,96.00
2023-05-03T22:37:02.032Z,96.40
2023-05-03T22:39:29.218Z,96.60
2023-05-03T22:41:56.432Z,96.80
2023-05-03T22:44:23.733Z,97.40
2023-05-03T22:46:50.965Z,97.70
2023-05-03T22:49:18.896Z,98.20
2023-05-03T22:51:47.035Z,98.20
2023-05-03T22:54:15.620Z,98.10
2023-05-03T22:56:42.894Z,98.10
2023-05-03T22:59:11.499Z,98.40
2023-05-03T23:01:39.237Z,98.50
2023-05-03T23:04:07.948Z,98.60
2023-05-03T23:06:36.394Z,98.80
2023-05-03T23:09:04.582Z,99.10
2023-05-03T23:11:32.148Z,99.30
2023-05-03T23:13:59.456Z,99.50
2023-05-03T23:16:26.766Z,99.50
2023-05-03T23:18:55.722Z,99.60
2023-05-03T23:21:23.562Z,99.70
2023-05-03T23:23:50.745Z,99.60
2023-05-03T23:26:17.880Z,99.30
2023-05-03T23:28:46.306Z,99.20
2023-05-03T23:31:14.406Z,99.10
2023-05-03T23:33:42.381Z,99.10
2023-05-03T23:36:09.692Z,98.80
2023-05-03T23:38:36.985Z,98.40
2023-05-03T23:41:04.349Z,98.80
2023-05-03T23:43:31.939Z,98.70
2023-05-03T23:45:59.119Z,98.90
2023-05-03T23:48:26.508Z,98.90
2023-05-03T23:50:53.875Z,99.20
2023-05-03T23:53:21.105Z,99.10
2023-05-03T23:55:49.498Z,98.90
2023-05-03T23:58:18.177Z,99.00
